Latest Weather Observations for Adelaide

IDS60801

Issued at 8:32 pm CDT Thursday 29 January 2015 (issued every 30 minutes, with the page automatically refreshed every 10 minutes)

About weather observations | Map of weather stations | Latest weather observations for SA | Other Formats
Station Details ID: 023090 Name: KENT TOWN Lat: -34.92 Lon: 138.62 Height: 48.0 m
Data from the previous 72 hours. | See also: Recent months at Adelaide
Date/Time
CDT
Temp
°C
App
Temp
°C
Dew
Point
Rel
Hum
%
Delta-T
°C
Wind Press
QNH
hPa
Press
MSL
hPa
Rain
since 9 am
mm
Dir
 
Spd
km/h
Gust
km/h
Spd
kts
Gust
kts
29/08:30pm 21.8 17.9 10.9 50 6.0 SSE 22 37 12 20 1015.4 - 0.0
29/08:00pm 23.4 20.4 10.6 44 7.1 S 17 24 9 13 1015.3 - 0.0
29/07:30pm 24.5 21.7 10.0 40 8.0 SSE 15 28 8 15 1015.2 - 0.0
29/07:00pm 25.9 23.0 9.5 35 9.0 SE 15 28 8 15 1014.7 - 0.0
29/06:30pm 27.4 24.2 9.8 33 9.8 SSE 17 26 9 14 1014.3 - 0.0
29/06:00pm 27.7 23.1 8.2 29 10.6 SE 22 35 12 19 1014.4 1014.2 0.0
29/05:30pm 28.1 24.6 7.2 26 11.2 ESE 15 28 8 15 1014.4 - 0.0
29/05:00pm 29.1 25.1 5.0 21 12.5 ESE 15 24 8 13 1014.3 - 0.0
29/04:30pm 29.2 25.1 4.5 20 12.7 ESE 15 26 8 14 1014.7 - 0.0
29/04:00pm 29.6 25.2 4.9 21 12.8 SE 17 28 9 15 1015.0 - 0.0
29/03:30pm 28.8 23.6 3.7 20 12.7 SE 20 30 11 16 1015.3 - 0.0
29/03:00pm 28.5 24.2 3.0 19 12.7 ESE 15 30 8 16 1015.6 1015.5 0.0
29/02:30pm 28.1 23.9 3.6 20 12.3 E 15 26 8 14 1016.1 - 0.0
29/02:00pm 27.7 23.5 3.9 21 12.0 E 15 28 8 15 1016.4 - 0.0
29/01:30pm 27.4 23.3 4.6 23 11.6 E 15 28 8 15 1016.7 - 0.0
29/01:00pm 26.4 22.6 5.9 27 10.6 ESE 15 26 8 14 1017.1 - 0.0
29/12:30pm 26.1 23.0 5.7 27 10.5 SE 11 20 6 11 1017.4 - 0.0
29/12:00pm 25.4 22.1 6.6 30 9.8 SE 13 24 7 13 1017.7 1017.6 0.0
29/11:30am 24.2 21.4 7.1 33 8.9 ESE 11 20 6 11 1018.0 - 0.0
29/11:00am 23.8 21.2 7.6 35 8.5 ESE 11 20 6 11 1018.1 - 0.0
29/10:30am 22.7 19.7 7.5 37 7.9 ENE 13 24 7 13 1018.1 - 0.0
29/10:00am 21.3 18.3 7.6 41 7.1 SE 13 20 7 11 1018.1 - 0.0
29/09:30am 20.8 18.4 7.1 41 7.0 SE 9 20 5 11 1017.9 - 0.0
29/09:00am 20.1 16.6 7.4 43 6.5 ESE 15 24 8 13 1017.6 1017.5 0.0
29/08:30am 19.6 16.4 6.9 43 6.4 ESE 13 26 7 14 1017.4 - 0.0
29/08:00am 18.7 14.8 7.2 47 5.8 E 17 32 9 17 1017.1 - 0.0
29/07:30am 17.7 12.8 6.9 49 5.4 ESE 22 43 12 23 1016.7 - 0.0
29/07:14am 18.2 12.1 6.8 47 5.7 ESE 28 46 15 25 1016.3 - 0.0
29/07:00am 17.6 11.9 6.7 48 5.4 ESE 26 41 14 22 1016.2 - 0.0
29/06:30am 17.8 12.2 7.0 49 5.4 ESE 26 48 14 26 1015.8 - 0.0
29/06:23am 17.9 11.9 6.9 48 5.5 ESE 28 48 15 26 1015.7 - 0.0
29/06:00am 18.2 13.3 6.8 47 5.7 ESE 22 39 12 21 1015.4 1015.3 0.0
29/05:30am 18.5 13.2 7.0 47 5.8 ESE 24 39 13 21 1015.2 - 0.0
29/05:00am 18.7 13.9 7.2 47 5.8 ESE 22 39 12 21 1015.1 - 0.0
29/04:30am 18.9 14.0 7.0 46 6.0 ESE 22 39 12 21 1015.0 - 0.0
29/04:00am 19.2 14.4 7.2 45 6.1 ESE 22 43 12 23 1015.1 - 0.0
29/03:30am 19.6 14.4 7.2 44 6.3 ESE 24 41 13 22 1015.1 - 0.0
29/03:00am 19.6 15.0 8.2 47 5.9 ESE 22 35 12 19 1015.1 1015.0 0.0
29/02:30am 19.3 16.2 10.2 55 4.9 ESE 17 26 9 14 1015.2 - 0.0
29/02:00am 18.9 16.4 12.3 65 3.7 ESE 17 30 9 16 1015.4 - 0.0
29/01:30am 18.8 18.3 12.7 67 3.4 SE 7 22 4 12 1015.7 - 0.0
29/01:00am 17.8 17.3 13.9 78 2.2 SSW 9 19 5 10 1015.9 - 0.0
29/12:30am 17.4 17.4 14.1 81 1.9 S 7 15 4 8 1015.9 - 0.0
29/12:00am 17.8 17.3 13.9 78 2.2 SSW 9 13 5 7 1016.2 1016.1 0.0
 
Date/Time
CDT
Temp
°C
App
Temp
°C
Dew
Point
Rel
Hum
%
Delta-T
°C
Wind Press
QNH
hPa
Press
MSL
hPa
Rain
since 9 am
mm
Dir
 
Spd
km/h
Gust
km/h
Spd
kts
Gust
kts
28/11:30pm 17.8 17.0 13.9 78 2.2 S 11 19 6 10 1016.4 - 0.0
28/11:00pm 18.1 16.0 13.7 75 2.5 S 17 24 9 13 1016.6 - 0.0
28/10:30pm 18.0 17.1 13.6 75 2.5 SSW 11 19 6 10 1016.6 - 0.0
28/10:00pm 18.2 16.0 13.2 72 2.8 SSE 17 28 9 15 1016.7 - 0.0
28/09:30pm 18.4 16.1 13.1 71 3.0 S 17 28 9 15 1016.6 - 0.0
28/09:00pm 18.8 16.4 12.5 67 3.5 S 17 24 9 13 1016.4 1016.3 0.0
28/08:30pm 19.5 16.9 12.1 62 4.1 S 17 24 9 13 1016.3 - 0.0
28/08:00pm 20.5 17.8 11.7 57 4.9 S 17 32 9 17 1016.2 - 0.0
28/07:30pm 22.1 19.1 10.6 48 6.3 SSE 17 28 9 15 1015.8 - 0.0
28/07:00pm 23.1 19.9 10.1 43 7.1 S 17 28 9 15 1015.7 - 0.0
28/06:30pm 23.8 19.6 9.7 40 7.7 S 22 30 12 16 1015.5 - 0.0
28/06:00pm 24.3 20.6 9.4 38 8.1 SE 19 33 10 18 1015.3 1015.2 0.0
28/05:30pm 24.4 20.7 9.3 38 8.2 SSE 19 32 10 17 1015.3 - 0.0
28/05:00pm 24.6 20.2 8.9 37 8.5 SSE 22 35 12 19 1015.4 - 0.0
28/04:30pm 25.6 21.4 8.3 33 9.3 SSE 20 32 11 17 1015.3 - 0.0
28/04:00pm 24.8 20.8 8.1 34 8.9 SSE 19 35 10 19 1015.6 - 0.0
28/03:30pm 24.7 21.0 8.0 34 8.9 SE 17 26 9 14 1015.7 - 0.0
28/03:00pm 25.5 22.2 8.1 33 9.3 SSE 15 26 8 14 1015.8 1015.7 0.0
28/02:30pm 24.7 20.2 7.1 32 9.2 SSE 20 35 11 19 1016.2 - 0.0
28/02:00pm 24.3 19.9 6.5 32 9.2 SSE 19 28 10 15 1016.6 - 0.0
28/01:30pm 23.5 18.3 5.4 31 9.1 S 22 37 12 20 1017.0 - 0.0
28/01:00pm 23.2 18.6 5.8 32 8.8 SSE 19 32 10 17 1017.3 - 0.0
28/12:30pm 22.0 18.5 7.0 38 7.7 SE 15 28 8 15 1017.5 - 0.0
28/12:00pm 21.2 16.1 6.1 37 7.6 SSE 22 39 12 21 1017.8 1017.7 0.0
28/11:30am 20.8 16.2 6.6 39 7.2 SSE 20 33 11 18 1018.1 - 0.0
28/11:00am 19.6 15.0 6.7 43 6.5 SE 20 32 11 17 1018.5 - 0.0
28/10:30am 18.4 14.7 6.5 45 5.9 SE 15 28 8 15 1018.5 - 0.0
28/10:00am 18.4 14.8 6.8 46 5.8 S 15 24 8 13 1018.5 - 0.0
28/09:30am 17.5 13.5 6.8 49 5.3 SE 17 37 9 20 1018.5 - 0.0
28/09:00am 16.2 13.4 7.1 55 4.5 ESE 11 22 6 12 1018.5 1018.4 0.0
28/08:30am 15.4 13.4 7.3 58 4.0 S 7 13 4 7 1018.5 - 0.0
28/08:00am 13.9 12.5 7.4 65 3.2 SSW 4 15 2 8 1018.2 - 0.0
28/07:30am 13.7 10.5 6.9 63 3.3 ESE 13 22 7 12 1018.0 - 0.0
28/07:00am 13.7 9.1 6.6 62 3.4 SE 20 35 11 19 1017.3 - 0.0
28/06:30am 13.5 9.1 6.4 62 3.4 SSE 19 35 10 19 1016.5 - 0.0
28/06:00am 13.5 9.5 6.6 63 3.3 SSE 17 32 9 17 1016.3 1016.2 0.0
28/05:30am 13.5 9.9 6.9 64 3.2 S 15 22 8 12 1016.4 - 0.0
28/05:00am 13.9 9.5 6.7 62 3.5 SSE 19 32 10 17 1016.6 - 0.0
28/04:30am 14.1 11.6 6.7 61 3.6 SSE 9 17 5 9 1016.7 - 0.0
28/04:00am 14.2 12.0 7.7 65 3.2 SE 9 19 5 10 1016.8 - 0.0
28/03:30am 14.6 12.3 7.3 61 3.6 SSE 9 17 5 9 1017.1 - 0.0
28/03:00am 14.9 12.3 7.9 63 3.5 SSE 11 20 6 11 1017.3 1017.2 0.0
28/02:30am 15.3 12.2 8.8 65 3.3 SSE 15 24 8 13 1017.4 - 0.0
28/02:00am 15.6 12.3 9.6 67 3.1 SSE 17 30 9 16 1017.5 - 0.0
28/01:30am 15.9 13.1 10.0 68 3.1 SSE 15 26 8 14 1017.8 - 0.0
28/01:00am 16.1 14.1 10.2 68 3.1 S 11 22 6 12 1018.1 - 0.0
28/12:30am 16.0 14.1 10.5 70 2.9 S 11 20 6 11 1018.1 - 0.0
28/12:00am 15.8 13.9 10.5 71 2.8 S 11 19 6 10 1018.0 1017.9 0.0
 
Date/Time
CDT
Temp
°C
App
Temp
°C
Dew
Point
Rel
Hum
%
Delta-T
°C
Wind Press
QNH
hPa
Press
MSL
hPa
Rain
since 9 am
mm
Dir
 
Spd
km/h
Gust
km/h
Spd
kts
Gust
kts
27/11:30pm 15.6 12.8 10.1 70 2.9 S 15 26 8 14 1018.1 - 0.0
27/11:00pm 15.5 12.9 9.5 67 3.1 SSW 13 20 7 11 1018.1 - 0.0
27/10:30pm 15.7 12.7 9.1 65 3.4 S 15 28 8 15 1018.3 - 0.0
27/10:00pm 15.8 12.4 9.2 65 3.4 S 17 22 9 12 1018.3 - 0.0
27/09:30pm 16.0 12.7 9.4 65 3.4 S 17 32 9 17 1017.9 - 0.0
27/09:00pm 16.3 12.8 8.9 61 3.8 S 17 26 9 14 1017.7 1017.6 0.0
27/08:30pm 16.9 13.0 8.7 58 4.2 SSE 19 43 10 23 1017.3 - 0.0
27/08:00pm 17.5 12.6 8.6 56 4.6 SSE 24 39 13 21 1017.2 - 0.0
27/07:30pm 18.3 13.2 7.7 50 5.4 S 24 37 13 20 1017.0 - 0.0
27/07:00pm 19.2 14.3 7.1 45 6.1 S 22 37 12 20 1016.7 - 0.0
27/06:30pm 19.7 14.5 7.1 44 6.4 S 24 39 13 21 1016.5 - 0.0
27/06:00pm 20.7 16.3 7.5 42 6.8 S 20 41 11 22 1016.7 1016.6 0.0
27/05:30pm 21.5 16.9 8.1 42 7.0 SSE 22 41 12 22 1016.4 - 0.0
27/05:00pm 21.4 16.3 7.7 41 7.1 S 24 37 13 20 1016.2 - 0.0
27/04:30pm 21.7 16.7 7.9 41 7.2 S 24 33 13 18 1016.3 - 0.0
27/04:00pm 22.4 17.7 7.9 39 7.6 S 22 32 12 17 1016.1 - 0.0
27/03:30pm 22.1 17.9 7.4 38 7.6 SSE 19 37 10 20 1016.2 - 0.0
27/03:00pm 21.9 18.2 7.9 40 7.3 SE 17 33 9 18 1016.5 1016.4 0.0
27/02:30pm 22.8 18.5 7.7 38 7.9 SSE 20 35 11 19 1016.6 - 0.0
27/02:00pm 22.5 18.6 7.0 36 8.0 SE 17 32 9 17 1016.6 - 0.0
27/01:30pm 21.9 17.3 6.6 37 7.8 S 20 32 11 17 1016.9 - 0.0
27/01:00pm 22.1 18.1 6.6 36 7.9 SSE 17 33 9 18 1017.3 - 0.0
27/12:30pm 21.3 16.7 6.5 38 7.5 S 20 32 11 17 1017.7 - 0.0
27/12:00pm 20.7 16.2 6.9 40 7.0 SSE 20 30 11 16 1017.9 1017.8 0.0
27/11:30am 19.8 15.2 6.7 42 6.6 SE 20 32 11 17 1018.2 - 0.0
27/11:00am 20.3 16.7 6.6 41 6.9 SSE 15 32 8 17 1018.3 - 0.0
27/10:30am 19.1 15.2 7.0 45 6.1 SE 17 28 9 15 1018.5 - 0.0
27/10:00am 18.8 14.2 6.6 45 6.1 SSE 20 33 11 18 1018.7 - 0.0
27/09:30am 17.9 15.0 6.6 47 5.6 S 11 20 6 11 1018.7 - 0.0
27/09:00am 17.3 14.3 5.8 46 5.6 S 11 22 6 12 1018.7 1018.6 0.0
27/08:30am 16.4 13.6 5.0 47 5.4 WNW 9 15 5 8 1018.6 - 0.0
27/08:00am 15.6 12.4 5.0 49 5.0 W 11 26 6 14 1018.4 - 0.0
27/07:30am 14.2 9.8 5.0 54 4.3 E 17 28 9 15 1017.8 - 0.0
27/07:00am 13.7 9.7 4.9 55 4.1 ESE 15 28 8 15 1017.6 - 0.0
27/06:30am 13.6 9.6 5.0 56 4.0 ESE 15 28 8 15 1017.5 - 0.0
27/06:00am 13.7 9.8 5.4 57 3.9 ESE 15 30 8 16 1017.3 1017.2 0.0
27/05:30am 14.0 10.6 6.0 58 3.8 ESE 13 20 7 11 1016.8 - 0.0
27/05:00am 14.1 9.8 6.9 62 3.5 ESE 19 32 10 17 1016.8 - 0.0
27/04:30am 14.3 10.6 7.9 65 3.2 SE 17 30 9 16 1016.7 - 0.0
27/04:00am 14.5 11.3 8.6 67 3.0 SE 15 30 8 16 1016.7 - 0.0
27/03:30am 14.9 10.4 8.6 66 3.2 SE 22 35 12 19 1016.7 - 0.0
27/03:00am 15.0 11.8 8.5 65 3.3 SE 15 33 8 18 1016.8 1016.7 0.0
27/02:30am 14.9 12.1 8.6 66 3.2 SSE 13 24 7 13 1017.1 - 0.0
27/02:00am 15.0 11.4 8.5 65 3.3 SSE 17 33 9 18 1017.1 - 0.0
27/01:30am 15.0 12.2 8.5 65 3.3 SSE 13 20 7 11 1017.5 - 0.0
27/01:00am 14.9 11.2 8.1 64 3.4 SSE 17 32 9 17 1017.8 - 0.0
27/12:30am 14.5 12.0 8.1 65 3.2 S 11 19 6 10 1018.2 - 0.0
27/12:00am 14.5 11.5 7.6 63 3.4 S 13 20 7 11 1018.3 1018.2 0.0
 
Date/Time
CDT
Temp
°C
App
Temp
°C
Dew
Point
Rel
Hum
%
Delta-T
°C
Wind Press
QNH
hPa
Press
MSL
hPa
Rain
since 9 am
mm
Dir
 
Spd
km/h
Gust
km/h
Spd
kts
Gust
kts
26/11:30pm 14.7 12.0 7.4 61 3.6 SSW 11 17 6 9 1018.6 - 0.0
26/11:00pm 15.0 11.5 7.3 60 3.8 S 15 24 8 13 1018.7 - 0.0
26/10:30pm 15.2 12.1 7.3 59 3.9 S 13 20 7 11 1018.8 - 0.0
26/10:00pm 15.4 12.4 7.8 60 3.8 S 13 19 7 10 1018.7 - 0.0
26/09:30pm 15.7 12.1 8.2 61 3.8 S 17 26 9 14 1018.4 - 0.0
26/09:00pm 16.2 11.8 6.6 53 4.7 SSE 19 28 10 15 1018.2 1018.1 0.0

Other Formats:

Comma delimited format used in spreadsheet applications
http://www.bom.gov.au/fwo/IDS60801/IDS60801.94675.axf

JavaScript Object Notation format (JSON) in row-major order
http://www.bom.gov.au/fwo/IDS60801/IDS60801.94675.json